Time,TemperatureF,DewpointF,PressureIn,WindDirection,WindDirectionDegrees,WindSpeedMPH,WindSpeedGustMPH,Humidity,HourlyPrecipIn,Conditions,Clouds,dailyrainin,SoftwareType,DateUTC
2013-11-13 00:08:00,22.9,20.0,30.68,NNE,19,0.0,0.0,90,0.00,,,0.00,weatherlink.com 1.10,2013-11-13 05:08:00,
2013-11-13 00:23:00,22.7,20.0,30.67,NNE,19,0.0,0.0,90,0.00,,,0.00,weatherlink.com 1.10,2013-11-13 05:23:00,
2013-11-13 00:38:00,22.4,20.0,30.67,NNE,19,0.0,0.0,91,0.00,,,0.00,weatherlink.com 1.10,2013-11-13 05:38:00,
2013-11-13 00:53:00,22.4,21.0,30.66,NNE,19,0.0,0.0,92,0.00,,,0.00,weatherlink.com 1.10,2013-11-13 05:53:00,
2013-11-13 01:08:00,22.3,20.0,30.66,NNE,19,0.0,0.0,91,0.00,,,0.00,weatherlink.com 1.10,2013-11-13 06:08:00,
2013-11-13 01:23:00,22.0,20.0,30.65,NNE,19,0.0,0.0,91,0.00,,,0.00,weatherlink.com 1.10,2013-11-13 06:23:00,
2013-11-13 01:38:00,21.8,20.0,30.65,NNE,19,0.0,0.0,91,0.00,,,0.00,weatherlink.com 1.10,2013-11-13 06:38:00,
2013-11-13 01:53:00,21.6,20.0,30.65,NNE,19,0.0,0.0,92,0.00,,,0.00,weatherlink.com 1.10,2013-11-13 06:53:00,
2013-11-13 02:08:00,21.3,19.0,30.65,NNE,19,0.0,0.0,92,0.00,,,0.00,weatherlink.com 1.10,2013-11-13 07:08:00,
2013-11-13 02:23:00,21.1,19.0,30.66,NNE,19,0.0,0.0,92,0.00,,,0.00,weatherlink.com 1.10,2013-11-13 07:23:00,
2013-11-13 02:38:00,20.8,19.0,30.66,NNE,19,0.0,0.0,92,0.00,,,0.00,weatherlink.com 1.10,2013-11-13 07:38:00,
2013-11-13 02:53:00,20.6,19.0,30.67,NNE,19,0.0,0.0,92,0.00,,,0.00,weatherlink.com 1.10,2013-11-13 07:53:00,
2013-11-13 03:08:00,20.4,19.0,30.67,NNE,19,0.0,0.0,92,0.00,,,0.00,weatherlink.com 1.10,2013-11-13 08:08:00,
2013-11-13 03:23:00,20.2,18.0,30.67,NNE,19,0.0,0.0,92,0.00,,,0.00,weatherlink.com 1.10,2013-11-13 08:23:00,
2013-11-13 03:38:00,19.9,18.0,30.67,NNE,19,0.0,0.0,92,0.00,,,0.00,weatherlink.com 1.10,2013-11-13 08:38:00,
2013-11-13 03:53:00,19.7,18.0,30.67,NNE,19,0.0,0.0,92,0.00,,,0.00,weatherlink.com 1.10,2013-11-13 08:53:00,
2013-11-13 04:08:00,19.5,18.0,30.68,NNE,19,0.0,0.0,92,0.00,,,0.00,weatherlink.com 1.10,2013-11-13 09:08:00,
2013-11-13 04:23:00,19.4,18.0,30.68,NNE,19,0.0,0.0,92,0.00,,,0.00,weatherlink.com 1.10,2013-11-13 09:23:00,
2013-11-13 04:38:00,19.2,17.0,30.68,NNE,19,0.0,0.0,92,0.00,,,0.00,weatherlink.com 1.10,2013-11-13 09:38:00,
2013-11-13 04:53:00,19.0,17.0,30.68,NNE,19,0.0,0.0,92,0.00,,,0.00,weatherlink.com 1.10,2013-11-13 09:53:00,
2013-11-13 05:08:00,18.7,17.0,30.68,NNE,19,0.0,0.0,92,0.00,,,0.00,weatherlink.com 1.10,2013-11-13 10:08:00,
2013-11-13 05:23:00,18.5,17.0,30.68,NNE,19,0.0,0.0,93,0.00,,,0.00,weatherlink.com 1.10,2013-11-13 10:23:00,
2013-11-13 05:38:00,18.2,16.0,30.68,NNE,19,0.0,0.0,92,0.00,,,0.00,weatherlink.com 1.10,2013-11-13 10:38:00,
2013-11-13 05:53:00,18.0,16.0,30.68,NNE,19,0.0,0.0,92,0.00,,,0.00,weatherlink.com 1.10,2013-11-13 10:53:00,
2013-11-13 06:08:00,18.1,16.0,30.68,NNE,19,0.0,0.0,93,0.00,,,0.00,weatherlink.com 1.10,2013-11-13 11:08:00,
2013-11-13 06:23:00,18.0,16.0,30.68,NNE,19,0.0,0.0,92,0.00,,,0.00,weatherlink.com 1.10,2013-11-13 11:23:00,
2013-11-13 06:38:00,17.6,16.0,30.68,NNE,19,0.0,0.0,92,0.00,,,0.00,weatherlink.com 1.10,2013-11-13 11:38:00,
2013-11-13 06:53:00,17.2,15.0,30.69,NNE,19,0.0,0.0,92,0.00,,,0.00,weatherlink.com 1.10,2013-11-13 11:53:00,
2013-11-13 07:09:00,17.2,15.0,30.69,NNE,19,0.0,0.0,92,0.00,,,0.00,weatherlink.com 1.10,2013-11-13 12:09:00,
2013-11-13 07:24:00,17.1,15.0,30.69,NNE,19,0.0,0.0,92,0.00,,,0.00,weatherlink.com 1.10,2013-11-13 12:24:00,
2013-11-13 07:39:00,16.9,15.0,30.69,NNE,19,0.0,0.0,92,0.00,,,0.00,weatherlink.com 1.10,2013-11-13 12:39:00,
2013-11-13 07:54:00,16.9,15.0,30.69,NNE,19,0.0,0.0,92,0.00,,,0.00,weatherlink.com 1.10,2013-11-13 12:54:00,
2013-11-13 08:09:00,17.3,16.0,30.70,NNE,19,0.0,0.0,93,0.00,,,0.00,weatherlink.com 1.10,2013-11-13 13:09:00,
2013-11-13 08:24:00,18.4,17.0,30.70,NNE,19,0.0,0.0,94,0.00,,,0.00,weatherlink.com 1.10,2013-11-13 13:24:00,
2013-11-13 08:39:00,20.7,20.0,30.70,NNE,19,0.0,0.0,95,0.00,,,0.00,weatherlink.com 1.10,2013-11-13 13:39:00,
2013-11-13 08:54:00,22.3,21.0,30.70,NNE,19,0.0,0.0,93,0.00,,,0.00,weatherlink.com 1.10,2013-11-13 13:54:00,
2013-11-13 09:09:00,23.7,22.0,30.70,NNE,19,1.0,2.0,92,0.00,,,0.00,weatherlink.com 1.10,2013-11-13 14:09:00,
2013-11-13 09:24:00,25.1,23.0,30.70,NNE,19,1.0,2.0,90,0.00,,,0.00,weatherlink.com 1.10,2013-11-13 14:24:00,
2013-11-13 09:39:00,26.4,23.0,30.69,SW,222,2.0,4.0,87,0.00,,,0.00,weatherlink.com 1.10,2013-11-13 14:39:00,
2013-11-13 09:54:00,28.0,24.0,30.69,SW,222,0.0,4.0,84,0.00,,,0.00,weatherlink.com 1.10,2013-11-13 14:54:00,
2013-11-13 10:09:00,29.2,24.0,30.69,WSW,243,1.0,5.0,82,0.00,,,0.00,weatherlink.com 1.10,2013-11-13 15:09:00,
2013-11-13 10:24:00,30.5,25.0,30.69,WSW,240,1.0,5.0,80,0.00,,,0.00,weatherlink.com 1.10,2013-11-13 15:24:00,
2013-11-13 10:39:00,32.1,25.0,30.68,SSW,213,3.0,5.0,74,0.00,,,0.00,weatherlink.com 1.10,2013-11-13 15:39:00,
2013-11-13 10:54:00,32.5,23.0,30.68,South,188,2.0,7.0,68,0.00,,,0.00,weatherlink.com 1.10,2013-11-13 15:54:00,
2013-11-13 11:09:00,33.8,22.0,30.68,West,270,3.0,7.0,62,0.00,,,0.00,weatherlink.com 1.10,2013-11-13 16:09:00,
2013-11-13 11:24:00,35.0,23.0,30.67,SSW,204,0.0,5.0,63,0.00,,,0.00,weatherlink.com 1.10,2013-11-13 16:24:00,
2013-11-13 11:39:00,35.6,24.0,30.67,WSW,252,8.0,10.0,62,0.00,,,0.00,weatherlink.com 1.10,2013-11-13 16:39:00,
2013-11-13 11:54:00,36.1,24.0,30.66,WSW,239,3.0,6.0,62,0.00,,,0.00,weatherlink.com 1.10,2013-11-13 16:54:00,
2013-11-13 12:09:00,36.8,24.0,30.65,South,190,3.0,9.0,61,0.00,,,0.00,weatherlink.com 1.10,2013-11-13 17:09:00,
2013-11-13 12:24:00,37.1,22.0,30.64,SW,221,5.0,8.0,55,0.00,,,0.00,weatherlink.com 1.10,2013-11-13 17:24:00,
2013-11-13 12:39:00,38.0,22.0,30.63,SW,232,3.0,9.0,53,0.00,,,0.00,weatherlink.com 1.10,2013-11-13 17:39:00,
2013-11-13 12:55:00,38.3,22.0,30.62,WSW,238,5.0,10.0,52,0.00,,,0.00,weatherlink.com 1.10,2013-11-13 17:55:00,
2013-11-13 13:10:00,38.9,22.0,30.61,SW,236,4.0,11.0,52,0.00,,,0.00,weatherlink.com 1.10,2013-11-13 18:10:00,
2013-11-13 13:25:00,39.2,21.0,30.60,South,188,3.0,9.0,49,0.00,,,0.00,weatherlink.com 1.10,2013-11-13 18:25:00,
2013-11-13 13:40:00,39.4,21.0,30.59,SSW,198,4.0,9.0,48,0.00,,,0.00,weatherlink.com 1.10,2013-11-13 18:40:00,
2013-11-13 13:55:00,39.6,20.0,30.59,WSW,256,5.0,9.0,46,0.00,,,0.00,weatherlink.com 1.10,2013-11-13 18:55:00,
2013-11-13 14:10:00,40.0,20.0,30.59,SW,226,5.0,13.0,45,0.00,,,0.00,weatherlink.com 1.10,2013-11-13 19:10:00,
2013-11-13 14:25:00,40.4,20.0,30.58,WSW,246,1.0,8.0,44,0.00,,,0.00,weatherlink.com 1.10,2013-11-13 19:25:00,
2013-11-13 14:40:00,41.2,20.0,30.57,WSW,250,3.0,7.0,43,0.00,,,0.00,weatherlink.com 1.10,2013-11-13 19:40:00,
2013-11-13 14:55:00,41.3,20.0,30.57,WSW,256,4.0,8.0,42,0.00,,,0.00,weatherlink.com 1.10,2013-11-13 19:55:00,
2013-11-13 15:10:00,40.8,20.0,30.55,WSW,247,2.0,8.0,43,0.00,,,0.00,weatherlink.com 1.10,2013-11-13 20:10:00,
2013-11-13 15:25:00,40.9,20.0,30.55,WSW,244,5.0,9.0,44,0.00,,,0.00,weatherlink.com 1.10,2013-11-13 20:25:00,
2013-11-13 15:40:00,40.4,20.0,30.54,SW,219,5.0,10.0,44,0.00,,,0.00,weatherlink.com 1.10,2013-11-13 20:40:00,
2013-11-13 15:55:00,41.3,21.0,30.54,WSW,238,4.0,8.0,44,0.00,,,0.00,weatherlink.com 1.10,2013-11-13 20:55:00,
2013-11-13 16:10:00,41.6,20.0,30.53,SSE,161,3.0,6.0,43,0.00,,,0.00,weatherlink.com 1.10,2013-11-13 21:10:00,
2013-11-13 16:25:00,41.9,21.0,30.53,SSW,205,2.0,5.0,44,0.00,,,0.00,weatherlink.com 1.10,2013-11-13 21:25:00,
2013-11-13 16:40:00,41.3,21.0,30.52,SSW,210,3.0,8.0,44,0.00,,,0.00,weatherlink.com 1.10,2013-11-13 21:40:00,
2013-11-13 16:55:00,40.5,21.0,30.52,SSW,196,2.0,6.0,46,0.00,,,0.00,weatherlink.com 1.10,2013-11-13 21:55:00,
2013-11-13 17:10:00,39.1,20.0,30.51,South,187,5.0,6.0,47,0.00,,,0.00,weatherlink.com 1.10,2013-11-13 22:10:00,
2013-11-13 17:25:00,38.3,20.0,30.51,South,178,4.0,7.0,49,0.00,,,0.00,weatherlink.com 1.10,2013-11-13 22:25:00,
2013-11-13 17:40:00,37.5,20.0,30.51,South,178,0.0,3.0,50,0.00,,,0.00,weatherlink.com 1.10,2013-11-13 22:40:00,
2013-11-13 17:55:00,36.8,20.0,30.50,South,178,0.0,3.0,52,0.00,,,0.00,weatherlink.com 1.10,2013-11-13 22:55:00,
2013-11-13 18:10:00,35.2,22.0,30.50,South,178,0.0,0.0,59,0.00,,,0.00,weatherlink.com 1.10,2013-11-13 23:10:00,
2013-11-13 18:40:00,31.6,21.0,30.50,South,178,0.0,0.0,66,0.00,,,0.00,weatherlink.com 1.10,2013-11-13 23:40:00,
2013-11-13 18:55:00,30.7,22.0,30.49,South,178,0.0,0.0,70,0.00,,,0.00,weatherlink.com 1.10,2013-11-13 23:55:00,
2013-11-13 19:10:00,29.9,22.0,30.49,South,178,0.0,0.0,71,0.00,,,0.00,weatherlink.com 1.10,2013-11-14 00:10:00,
2013-11-13 19:40:00,28.7,22.0,30.48,South,178,0.0,0.0,75,0.00,,,0.00,weatherlink.com 1.10,2013-11-14 00:40:00,
2013-11-13 19:55:00,28.2,22.0,30.48,South,178,0.0,0.0,76,0.00,,,0.00,weatherlink.com 1.10,2013-11-14 00:55:00,
2013-11-13 20:10:00,27.7,21.0,30.48,South,178,0.0,0.0,77,0.00,,,0.00,weatherlink.com 1.10,2013-11-14 01:10:00,
2013-11-13 20:25:00,27.2,22.0,30.48,South,178,0.0,0.0,80,0.00,,,0.00,weatherlink.com 1.10,2013-11-14 01:25:00,
2013-11-13 20:40:00,26.8,21.0,30.47,South,178,0.0,0.0,80,0.00,,,0.00,weatherlink.com 1.10,2013-11-14 01:40:00,
2013-11-13 20:55:00,26.4,21.0,30.47,South,178,0.0,0.0,81,0.00,,,0.00,weatherlink.com 1.10,2013-11-14 01:55:00,
2013-11-13 21:10:00,26.3,22.0,30.47,South,178,0.0,0.0,82,0.00,,,0.00,weatherlink.com 1.10,2013-11-14 02:10:00,
2013-11-13 21:25:00,26.3,22.0,30.46,South,178,0.0,0.0,83,0.00,,,0.00,weatherlink.com 1.10,2013-11-14 02:25:00,
2013-11-13 21:40:00,26.1,22.0,30.46,South,178,0.0,0.0,83,0.00,,,0.00,weatherlink.com 1.10,2013-11-14 02:40:00,
2013-11-13 21:55:00,26.0,22.0,30.46,South,178,0.0,0.0,83,0.00,,,0.00,weatherlink.com 1.10,2013-11-14 02:55:00,
2013-11-13 22:10:00,25.7,21.0,30.46,South,178,0.0,0.0,83,0.00,,,0.00,weatherlink.com 1.10,2013-11-14 03:10:00,
2013-11-13 22:25:00,25.6,21.0,30.45,South,178,0.0,0.0,84,0.00,,,0.00,weatherlink.com 1.10,2013-11-14 03:25:00,
2013-11-13 22:41:00,25.2,21.0,30.44,South,178,0.0,0.0,84,0.00,,,0.00,weatherlink.com 1.10,2013-11-14 03:41:00,
2013-11-13 22:56:00,25.6,21.0,30.44,South,178,0.0,1.0,83,0.00,,,0.00,weatherlink.com 1.10,2013-11-14 03:56:00,
2013-11-13 23:11:00,25.7,21.0,30.43,South,178,0.0,0.0,82,0.00,,,0.00,weatherlink.com 1.10,2013-11-14 04:11:00,
2013-11-13 23:26:00,27.0,21.0,30.44,South,178,0.0,3.0,79,0.00,,,0.00,weatherlink.com 1.10,2013-11-14 04:26:00,
2013-11-13 23:41:00,28.1,21.0,30.44,SSW,198,0.0,3.0,76,0.00,,,0.00,weatherlink.com 1.10,2013-11-14 04:41:00,
2013-11-13 23:56:00,29.1,22.0,30.43,South,187,2.0,4.0,74,0.00,,,0.00,weatherlink.com 1.10,2013-11-14 04:56:00,